createdAt,value
2018-04-10T00:00:32.671Z,14.62
2018-04-10T00:01:32.838Z,14.60
2018-04-10T00:02:33.011Z,14.72
2018-04-10T00:03:33.178Z,14.64
2018-04-10T00:04:33.340Z,14.69
2018-04-10T00:05:33.510Z,14.58
2018-04-10T00:06:33.679Z,14.57
2018-04-10T00:07:33.849Z,14.51
2018-04-10T00:08:34.027Z,14.60
2018-04-10T00:09:34.192Z,14.52
2018-04-10T00:10:34.365Z,14.60
2018-04-10T00:11:34.538Z,14.57
2018-04-10T00:12:34.708Z,14.60
2018-04-10T00:13:34.873Z,14.69
2018-04-10T00:14:35.045Z,14.62
2018-04-10T00:15:35.213Z,14.65
2018-04-10T00:16:35.382Z,14.64
2018-04-10T00:17:35.542Z,14.58
2018-04-10T00:18:35.717Z,14.61
2018-04-10T00:19:35.886Z,14.60
2018-04-10T00:20:36.049Z,14.47
2018-04-10T00:21:36.214Z,14.50
2018-04-10T00:22:36.387Z,14.40
2018-04-10T00:23:36.553Z,14.45
2018-04-10T00:24:36.733Z,14.36
2018-04-10T00:25:36.904Z,14.43
2018-04-10T00:26:37.072Z,14.47
2018-04-10T00:27:37.239Z,14.50
2018-04-10T00:28:37.408Z,14.45
2018-04-10T00:29:37.588Z,14.47
2018-04-10T00:30:37.757Z,14.43
2018-04-10T00:31:37.909Z,14.36
2018-04-10T00:32:38.075Z,14.33
2018-04-10T00:33:38.242Z,14.15
2018-04-10T00:34:38.418Z,14.15
2018-04-10T00:35:38.580Z,14.12
2018-04-10T00:36:38.744Z,14.03
2018-04-10T00:37:38.913Z,14.09
2018-04-10T00:38:39.085Z,13.97
2018-04-10T00:39:39.255Z,14.04
2018-04-10T00:40:39.427Z,14.06
2018-04-10T00:41:39.598Z,14.06
2018-04-10T00:42:39.761Z,14.07
2018-04-10T00:43:39.937Z,14.03
2018-04-10T00:44:40.108Z,14.04
2018-04-10T00:45:40.280Z,14.02
2018-04-10T00:46:40.447Z,14.06
2018-04-10T00:47:40.629Z,14.07
2018-04-10T00:48:40.795Z,14.06
2018-04-10T00:49:40.967Z,14.04
2018-04-10T00:50:41.129Z,14.12
2018-04-10T00:51:41.300Z,14.03
2018-04-10T00:52:41.463Z,14.02
2018-04-10T00:53:41.621Z,14.04
2018-04-10T00:54:41.789Z,14.00
2018-04-10T00:55:41.959Z,13.96
2018-04-10T00:56:42.132Z,13.96
2018-04-10T00:57:42.301Z,13.97
2018-04-10T00:58:42.464Z,14.00
2018-04-10T00:59:42.636Z,13.92
2018-04-10T01:00:42.815Z,13.91
2018-04-10T01:01:42.981Z,14.04
2018-04-10T01:02:43.153Z,14.03
2018-04-10T01:03:43.319Z,14.04
2018-04-10T01:04:43.482Z,14.03
2018-04-10T01:05:43.653Z,13.91
2018-04-10T01:06:43.821Z,14.03
2018-04-10T01:07:43.993Z,14.00
2018-04-10T01:08:44.155Z,13.99
2018-04-10T01:09:44.333Z,14.03
2018-04-10T01:10:44.503Z,14.04
2018-04-10T01:11:44.672Z,14.09
2018-04-10T01:12:44.847Z,14.06
2018-04-10T01:13:45.003Z,13.99
2018-04-10T01:14:45.170Z,14.02
2018-04-10T01:15:45.340Z,14.06
2018-04-10T01:16:45.508Z,13.91
2018-04-10T01:17:45.711Z,13.95
2018-04-10T01:18:45.855Z,13.92
2018-04-10T01:19:46.024Z,13.87
2018-04-10T01:20:46.192Z,13.84
2018-04-10T01:21:46.362Z,13.73
2018-04-10T01:22:46.528Z,13.70
2018-04-10T01:23:46.697Z,13.73
2018-04-10T01:24:46.873Z,13.63
2018-04-10T01:25:47.048Z,13.66
2018-04-10T01:26:47.218Z,13.73
2018-04-10T01:27:47.391Z,13.64
2018-04-10T01:28:47.564Z,13.71
2018-04-10T01:29:47.723Z,13.79
2018-04-10T01:30:47.895Z,13.73
2018-04-10T01:31:48.056Z,13.77
2018-04-10T01:32:48.230Z,13.75
2018-04-10T01:33:48.398Z,13.73
2018-04-10T01:34:48.576Z,13.81
2018-04-10T01:35:48.753Z,13.62
2018-04-10T01:36:48.918Z,13.78
2018-04-10T01:37:49.083Z,13.71
2018-04-10T01:38:49.250Z,13.75
2018-04-10T01:39:49.423Z,13.73
2018-04-10T01:40:49.594Z,13.60
2018-04-10T01:41:49.768Z,13.71
2018-04-10T01:42:49.941Z,13.73
2018-04-10T01:43:50.108Z,13.71
2018-04-10T01:44:50.280Z,13.67
2018-04-10T01:45:50.453Z,13.60
2018-04-10T01:46:50.628Z,13.55
2018-04-10T01:47:50.791Z,13.51
2018-04-10T01:48:50.958Z,13.62
2018-04-10T01:49:51.126Z,13.49
2018-04-10T01:50:51.293Z,13.44
2018-04-10T01:51:51.465Z,13.49
2018-04-10T01:52:51.639Z,13.49
2018-04-10T01:53:51.805Z,13.55
2018-04-10T01:54:51.969Z,13.52
2018-04-10T01:55:52.134Z,13.48
2018-04-10T01:56:52.307Z,13.45
2018-04-10T01:57:52.469Z,13.44
2018-04-10T01:58:52.638Z,13.46
2018-04-10T01:59:52.810Z,13.32
2018-04-10T02:00:53.302Z,13.14
2018-04-10T02:01:53.475Z,13.11
2018-04-10T02:02:53.542Z,13.11
2018-04-10T02:03:53.821Z,12.97
2018-04-10T02:04:53.956Z,13.10
2018-04-10T02:05:53.820Z,13.15
2018-04-10T02:06:54.310Z,13.11
2018-04-10T02:07:54.401Z,13.07
2018-04-10T02:08:54.546Z,13.14
2018-04-10T02:09:54.781Z,13.20
2018-04-10T02:10:54.548Z,13.12
2018-04-10T02:11:54.734Z,13.14
2018-04-10T02:12:54.924Z,13.14
2018-04-10T02:13:55.100Z,13.14
2018-04-10T02:14:55.274Z,13.23
2018-04-10T02:15:55.451Z,13.20
2018-04-10T02:16:55.649Z,13.08
2018-04-10T02:17:55.826Z,13.14
2018-04-10T02:18:56.008Z,13.08
2018-04-10T02:19:56.176Z,13.12
2018-04-10T02:20:56.386Z,13.11
2018-04-10T02:21:56.548Z,13.00
2018-04-10T02:22:56.733Z,12.89
2018-04-10T02:23:56.911Z,12.79
2018-04-10T02:24:57.090Z,12.71
2018-04-10T02:25:57.267Z,12.72
2018-04-10T02:26:57.454Z,12.74
2018-04-10T02:27:57.630Z,12.72
2018-04-10T02:28:57.818Z,12.74
2018-04-10T02:29:57.997Z,12.79
2018-04-10T02:30:58.182Z,12.71
2018-04-10T02:31:58.360Z,12.77
2018-04-10T02:32:58.540Z,12.75
2018-04-10T02:33:58.720Z,12.87
2018-04-10T02:34:58.902Z,12.82
2018-04-10T02:35:59.093Z,12.85
2018-04-10T02:36:59.278Z,12.92
2018-04-10T02:37:59.462Z,12.92
2018-04-10T02:38:59.637Z,12.87
2018-04-10T02:39:59.814Z,12.93
2018-04-10T02:40:59.998Z,12.93
2018-04-10T02:42:00.177Z,12.93
2018-04-10T02:43:00.362Z,12.82
2018-04-10T02:44:00.539Z,12.77
2018-04-10T02:45:00.718Z,12.77
2018-04-10T02:46:00.895Z,12.64
2018-04-10T02:47:01.062Z,12.70
2018-04-10T02:48:01.251Z,12.67
2018-04-10T02:49:01.423Z,12.67
2018-04-10T02:50:01.616Z,12.59
2018-04-10T02:51:01.786Z,12.67
2018-04-10T02:52:01.958Z,12.78
2018-04-10T02:53:02.143Z,12.74
2018-04-10T02:54:02.325Z,12.78
2018-04-10T02:55:02.507Z,12.74
2018-04-10T02:56:02.683Z,12.70
2018-04-10T02:57:02.861Z,12.68
2018-04-10T02:58:03.035Z,12.57
2018-04-10T02:59:03.214Z,12.82
2018-04-10T03:00:03.398Z,12.74
2018-04-10T03:01:03.572Z,12.59
2018-04-10T03:02:03.748Z,12.60
2018-04-10T03:03:03.929Z,12.64
2018-04-10T03:04:04.105Z,12.64
2018-04-10T03:05:04.285Z,12.70
2018-04-10T03:06:04.481Z,12.67
2018-04-10T03:07:04.658Z,12.62
2018-04-10T03:08:04.841Z,12.60
2018-04-10T03:09:05.018Z,12.59
2018-04-10T03:10:05.186Z,12.59
2018-04-10T03:11:05.379Z,12.72
2018-04-10T03:12:05.569Z,12.64
2018-04-10T03:13:05.750Z,12.70
2018-04-10T03:14:05.918Z,12.70
2018-04-10T03:15:06.095Z,12.75
2018-04-10T03:16:06.276Z,12.72
2018-04-10T03:17:06.456Z,12.59
2018-04-10T03:18:06.634Z,12.60
2018-04-10T03:19:06.819Z,12.65
2018-04-10T03:20:07.000Z,12.60
2018-04-10T03:21:07.177Z,12.57
2018-04-10T03:22:07.359Z,12.60
2018-04-10T03:23:07.532Z,12.56
2018-04-10T03:24:07.711Z,12.54
2018-04-10T03:25:07.900Z,12.62
2018-04-10T03:26:08.090Z,12.56
2018-04-10T03:27:08.273Z,12.57
2018-04-10T03:28:08.452Z,12.56
2018-04-10T03:29:08.627Z,12.57
2018-04-10T03:30:08.823Z,12.62
2018-04-10T03:31:09.008Z,12.54
2018-04-10T03:32:09.188Z,12.57
2018-04-10T03:33:09.379Z,12.52
2018-04-10T03:34:09.557Z,12.62
2018-04-10T03:35:09.729Z,12.47
2018-04-10T03:36:09.911Z,12.42
2018-04-10T03:37:10.086Z,12.46
2018-04-10T03:38:10.268Z,12.42
2018-04-10T03:39:10.447Z,12.45
2018-04-10T03:40:10.632Z,12.42
2018-04-10T03:41:10.810Z,12.45
2018-04-10T03:42:10.992Z,12.42
2018-04-10T03:43:11.165Z,12.37
2018-04-10T03:44:11.339Z,12.32
2018-04-10T03:45:11.528Z,12.34
2018-04-10T03:46:11.718Z,12.38
2018-04-10T03:47:11.892Z,12.34
2018-04-10T03:48:12.065Z,12.34
2018-04-10T03:49:12.247Z,12.34
2018-04-10T03:50:12.425Z,12.19
2018-04-10T03:51:12.592Z,12.24
2018-04-10T03:52:12.759Z,12.14
2018-04-10T03:53:12.916Z,12.19
2018-04-10T03:54:13.099Z,12.20
2018-04-10T03:55:13.268Z,12.24
2018-04-10T03:56:13.441Z,12.23
2018-04-10T03:57:13.606Z,12.34
2018-04-10T03:58:13.770Z,12.24
2018-04-10T03:59:13.951Z,12.20
2018-04-10T04:00:14.119Z,12.29
2018-04-10T04:01:14.312Z,12.19
2018-04-10T04:02:14.443Z,12.12
2018-04-10T04:03:14.611Z,12.16
2018-04-10T04:04:14.776Z,12.23
2018-04-10T04:05:14.952Z,12.07
2018-04-10T04:06:15.117Z,12.21
2018-04-10T04:07:15.285Z,12.12
2018-04-10T04:08:15.457Z,12.02
2018-04-10T04:09:15.623Z,12.19
2018-04-10T04:10:15.791Z,12.14
2018-04-10T04:11:15.954Z,12.13
2018-04-10T04:12:16.121Z,12.20
2018-04-10T04:13:16.290Z,12.23
2018-04-10T04:14:16.479Z,12.04
2018-04-10T04:15:16.620Z,12.02
2018-04-10T04:16:16.787Z,12.04
2018-04-10T04:17:16.971Z,11.99
2018-04-10T04:18:17.141Z,12.01
2018-04-10T04:19:17.302Z,11.95
2018-04-10T04:20:17.478Z,12.01
2018-04-10T04:21:17.646Z,11.96
2018-04-10T04:22:17.816Z,12.04
2018-04-10T04:23:17.990Z,12.01
2018-04-10T04:24:18.160Z,12.02
2018-04-10T04:25:18.327Z,11.99
2018-04-10T04:26:18.488Z,12.04
2018-04-10T04:27:18.663Z,12.04
2018-04-10T04:28:18.842Z,11.98
2018-04-10T04:29:19.004Z,12.01
2018-04-10T04:30:19.177Z,11.91
2018-04-10T04:31:19.349Z,11.86
2018-04-10T04:32:19.520Z,11.73
2018-04-10T04:33:19.687Z,11.85
2018-04-10T04:34:19.862Z,11.78
2018-04-10T04:35:20.030Z,11.67
2018-04-10T04:36:20.203Z,11.73
2018-04-10T04:37:20.397Z,11.75
2018-04-10T04:38:20.538Z,11.78
2018-04-10T04:39:20.719Z,11.78
2018-04-10T04:40:20.887Z,11.64
2018-04-10T04:41:21.061Z,11.69
2018-04-10T04:42:21.228Z,11.70
2018-04-10T04:43:21.397Z,11.62
2018-04-10T04:44:21.571Z,11.70
2018-04-10T04:45:21.725Z,11.60
2018-04-10T04:46:21.892Z,11.64
2018-04-10T04:47:22.061Z,11.51
2018-04-10T04:48:22.228Z,11.61
2018-04-10T04:49:22.399Z,11.62
2018-04-10T04:50:22.567Z,11.60
2018-04-10T04:51:22.734Z,11.51
2018-04-10T04:52:22.940Z,11.49
2018-04-10T04:53:23.072Z,11.51
2018-04-10T04:54:23.237Z,11.52
2018-04-10T04:55:23.469Z,11.55
2018-04-10T04:56:23.635Z,11.61
2018-04-10T04:57:23.911Z,11.60
2018-04-10T04:58:24.017Z,11.58
2018-04-10T04:59:24.186Z,11.70
2018-04-10T05:00:24.356Z,11.69
2018-04-10T05:01:24.523Z,11.72
2018-04-10T05:02:24.685Z,11.65
2018-04-10T05:03:24.860Z,11.79
2018-04-10T05:04:25.037Z,11.80
2018-04-10T05:05:25.197Z,11.78
2018-04-10T05:06:25.391Z,11.90
2018-04-10T05:07:25.552Z,11.73
2018-04-10T05:08:25.739Z,11.79
2018-04-10T05:09:25.890Z,11.90
2018-04-10T05:10:26.056Z,11.88
2018-04-10T05:11:26.223Z,12.01
2018-04-10T05:12:26.394Z,12.01
2018-04-10T05:13:26.560Z,12.17
2018-04-10T05:14:26.735Z,12.19
2018-04-10T05:15:26.955Z,12.23
2018-04-10T05:16:27.072Z,12.32
2018-04-10T05:17:27.246Z,12.34
2018-04-10T05:18:27.409Z,12.39
2018-04-10T05:19:27.576Z,12.41
2018-04-10T05:20:27.746Z,12.42
2018-04-10T05:21:27.923Z,12.47
2018-04-10T05:22:28.085Z,12.42
2018-04-10T05:23:28.255Z,12.46
2018-04-10T05:24:28.423Z,12.39
2018-04-10T05:25:28.582Z,12.31
2018-04-10T05:26:28.750Z,12.34
2018-04-10T05:27:28.925Z,12.20
2018-04-10T05:28:29.092Z,12.31
2018-04-10T05:29:29.253Z,12.34
2018-04-10T05:30:29.424Z,12.32
2018-04-10T05:31:29.593Z,12.34
2018-04-10T05:32:29.771Z,12.31
2018-04-10T05:33:29.945Z,12.17
2018-04-10T05:34:30.107Z,12.20
2018-04-10T05:35:30.279Z,12.13
2018-04-10T05:36:30.448Z,12.20
2018-04-10T05:37:30.620Z,12.19
2018-04-10T05:38:30.787Z,12.24
2018-04-10T05:39:30.964Z,12.21
2018-04-10T05:40:31.145Z,12.21
2018-04-10T05:41:31.312Z,12.20
2018-04-10T05:42:31.481Z,12.37
2018-04-10T05:43:31.658Z,12.39
2018-04-10T05:44:31.827Z,12.41
2018-04-10T05:45:31.988Z,12.47
2018-04-10T05:46:32.158Z,12.54
2018-04-10T05:47:32.322Z,12.45
2018-04-10T05:48:32.489Z,12.45
2018-04-10T05:49:32.657Z,12.46
2018-04-10T05:50:32.830Z,12.42
2018-04-10T05:51:32.995Z,12.27
2018-04-10T05:52:33.174Z,12.16
2018-04-10T05:53:33.342Z,12.21
2018-04-10T05:54:33.506Z,12.21
2018-04-10T05:55:33.675Z,12.35
2018-04-10T05:56:33.852Z,12.35
2018-04-10T05:57:34.033Z,12.39
2018-04-10T05:58:34.208Z,12.31
2018-04-10T05:59:34.373Z,12.31
2018-04-10T06:00:34.540Z,12.38
2018-04-10T06:01:34.718Z,12.32
2018-04-10T06:02:34.884Z,12.41
2018-04-10T06:03:35.067Z,12.50
2018-04-10T06:04:35.234Z,12.42
2018-04-10T06:05:35.411Z,12.52
2018-04-10T06:06:36.320Z,12.50
2018-04-10T06:07:35.743Z,12.47
2018-04-10T06:08:35.911Z,12.47
2018-04-10T06:09:36.080Z,12.52
2018-04-10T06:10:36.249Z,12.62
2018-04-10T06:11:36.418Z,12.60
2018-04-10T06:12:36.589Z,12.77
2018-04-10T06:13:36.752Z,12.78
2018-04-10T06:14:36.923Z,12.78
2018-04-10T06:15:37.089Z,12.72
2018-04-10T06:16:37.259Z,12.90
2018-04-10T06:17:37.430Z,12.92
2018-04-10T06:18:37.598Z,13.01
2018-04-10T06:19:37.769Z,12.70
2018-04-10T06:20:37.939Z,12.89
2018-04-10T06:21:38.111Z,12.75
2018-04-10T06:22:38.281Z,12.56
2018-04-10T06:23:38.449Z,12.65
2018-04-10T06:24:38.621Z,12.62
2018-04-10T06:25:38.807Z,12.72
2018-04-10T06:26:38.970Z,12.79
2018-04-10T06:27:39.140Z,12.93
2018-04-10T06:28:39.309Z,12.95
2018-04-10T06:29:39.482Z,13.19
2018-04-10T06:30:39.659Z,13.15
2018-04-10T06:31:39.822Z,13.36
2018-04-10T06:32:39.992Z,13.45
2018-04-10T06:33:40.167Z,13.48
2018-04-10T06:34:40.335Z,13.38
2018-04-10T06:35:40.525Z,13.36
2018-04-10T06:36:40.691Z,13.25
2018-04-10T06:37:40.860Z,13.22
2018-04-10T06:38:41.027Z,13.32
2018-04-10T06:39:41.203Z,13.60
2018-04-10T06:40:41.391Z,13.73
2018-04-10T06:41:41.555Z,13.87
2018-04-10T06:42:41.735Z,13.97
2018-04-10T06:43:41.931Z,14.22
2018-04-10T06:44:42.099Z,14.32
2018-04-10T06:45:42.267Z,14.29
2018-04-10T06:46:42.442Z,14.27
2018-04-10T06:47:42.640Z,14.35
2018-04-10T06:48:42.786Z,14.54
2018-04-10T06:49:42.951Z,14.51
2018-04-10T06:50:43.118Z,14.42
2018-04-10T06:51:43.296Z,14.47
2018-04-10T06:52:43.464Z,14.36
2018-04-10T06:53:43.632Z,14.07
2018-04-10T06:54:43.802Z,14.03
2018-04-10T06:55:43.985Z,14.07
2018-04-10T06:56:44.150Z,14.22
2018-04-10T06:57:44.317Z,14.28
2018-04-10T06:58:44.494Z,14.28
2018-04-10T06:59:44.665Z,14.35
2018-04-10T07:00:44.848Z,14.28
2018-04-10T07:01:45.018Z,14.29
2018-04-10T07:02:45.190Z,14.17
2018-04-10T07:03:45.360Z,14.21
2018-04-10T07:04:45.526Z,14.28
2018-04-10T07:05:45.693Z,14.60
2018-04-10T07:06:45.868Z,14.65
2018-04-10T07:07:46.036Z,14.61
2018-04-10T07:08:46.208Z,14.62
2018-04-10T07:09:46.386Z,14.60
2018-04-10T07:10:46.541Z,14.72
2018-04-10T07:11:46.701Z,14.77
2018-04-10T07:12:46.879Z,14.73
2018-04-10T07:13:47.057Z,14.72
2018-04-10T07:14:47.228Z,14.81
2018-04-10T07:15:47.397Z,14.86
2018-04-10T07:16:47.567Z,14.96
2018-04-10T07:17:47.740Z,14.89
2018-04-10T07:18:47.905Z,14.80
2018-04-10T07:19:48.082Z,14.91
2018-04-10T07:20:48.249Z,14.86
2018-04-10T07:21:48.416Z,14.94
2018-04-10T07:22:48.594Z,15.11
2018-04-10T07:23:48.764Z,15.17
2018-04-10T07:24:48.934Z,15.07
2018-04-10T07:25:49.099Z,15.21
2018-04-10T07:26:49.269Z,15.35
2018-04-10T07:27:49.445Z,15.50
2018-04-10T07:28:49.609Z,15.50
2018-04-10T07:29:49.783Z,15.59
2018-04-10T07:30:49.959Z,15.43
2018-04-10T07:31:50.120Z,15.50
2018-04-10T07:32:50.296Z,15.44
2018-04-10T07:33:50.475Z,15.13
2018-04-10T07:34:50.650Z,15.19
2018-04-10T07:35:50.818Z,15.23
2018-04-10T07:36:50.990Z,15.14
2018-04-10T07:37:51.169Z,15.31
2018-04-10T07:38:51.332Z,15.38
2018-04-10T07:39:51.497Z,15.39
2018-04-10T07:40:51.656Z,15.35
2018-04-10T07:41:51.829Z,15.47
2018-04-10T07:42:52.026Z,15.50
2018-04-10T07:43:52.197Z,15.54
2018-04-10T07:44:52.367Z,15.56
2018-04-10T07:45:53.348Z,15.60
2018-04-10T07:46:52.769Z,15.69
2018-04-10T07:47:52.933Z,15.82
2018-04-10T07:48:53.109Z,16.00
2018-04-10T07:49:53.276Z,16.11
2018-04-10T07:50:53.451Z,16.07
2018-04-10T07:51:53.622Z,15.90
2018-04-10T07:52:53.789Z,15.89
2018-04-10T07:53:53.970Z,16.09
2018-04-10T07:54:54.144Z,16.23
2018-04-10T07:55:54.320Z,16.25
2018-04-10T07:56:54.489Z,16.42
2018-04-10T07:57:54.662Z,16.70
2018-04-10T07:58:54.832Z,16.96
2018-04-10T07:59:54.999Z,16.94
2018-04-10T08:00:55.181Z,17.03
2018-04-10T08:01:55.366Z,16.96
2018-04-10T08:02:55.517Z,16.98
2018-04-10T08:03:55.690Z,16.91
2018-04-10T08:04:55.861Z,17.00
2018-04-10T08:05:56.028Z,17.21
2018-04-10T08:06:56.200Z,17.44
2018-04-10T08:07:56.371Z,17.52
2018-04-10T08:08:56.555Z,17.66
2018-04-10T08:09:56.722Z,17.68
2018-04-10T08:10:56.900Z,17.84
2018-04-10T08:11:57.067Z,17.99
2018-04-10T08:12:57.243Z,18.03
2018-04-10T08:13:57.416Z,18.12
2018-04-10T08:14:57.577Z,18.36
2018-04-10T08:15:57.747Z,18.30
2018-04-10T08:16:57.920Z,18.37
2018-04-10T08:17:58.091Z,18.62
2018-04-10T08:18:58.261Z,18.69
2018-04-10T08:19:58.440Z,18.81
2018-04-10T08:20:58.622Z,18.73
2018-04-10T08:21:58.804Z,18.94
2018-04-10T08:22:58.972Z,18.99
2018-04-10T08:23:59.137Z,19.18
2018-04-10T08:24:59.333Z,19.25
2018-04-10T08:25:59.512Z,19.32
2018-04-10T08:26:59.688Z,19.55
2018-04-10T08:27:59.866Z,19.59
2018-04-10T08:29:00.037Z,19.91
2018-04-10T08:30:00.210Z,20.43
2018-04-10T08:31:00.381Z,21.34
2018-04-10T08:32:00.562Z,22.39
2018-04-10T08:33:00.734Z,23.58
2018-04-10T08:34:00.910Z,24.28
2018-04-10T08:35:01.082Z,25.28
2018-04-10T08:36:01.295Z,26.32
2018-04-10T08:37:01.442Z,27.00
2018-04-10T08:38:01.616Z,27.78
2018-04-10T08:39:01.790Z,28.00
2018-04-10T08:40:01.965Z,28.14
2018-04-10T08:41:02.141Z,28.56
2018-04-10T08:42:02.315Z,28.83
2018-04-10T08:43:02.527Z,29.12
2018-04-10T08:44:02.669Z,29.41
2018-04-10T08:45:02.854Z,29.63
2018-04-10T08:46:03.038Z,29.67
2018-04-10T08:47:03.217Z,30.00
2018-04-10T08:48:03.394Z,30.34
2018-04-10T08:49:03.569Z,30.67
2018-04-10T08:50:03.744Z,30.95
2018-04-10T08:51:03.924Z,31.06
2018-04-10T08:52:04.107Z,31.31
2018-04-10T08:53:04.291Z,31.69
2018-04-10T08:54:04.466Z,32.04
2018-04-10T08:55:04.646Z,32.15
2018-04-10T08:56:04.833Z,32.32
2018-04-10T08:57:05.015Z,32.65
2018-04-10T08:58:05.196Z,32.89
2018-04-10T08:59:05.375Z,32.89
2018-04-10T09:00:05.553Z,32.32
2018-04-10T09:01:05.742Z,31.91
2018-04-10T09:02:05.929Z,31.81
2018-04-10T09:03:06.106Z,31.91
2018-04-10T09:04:06.275Z,32.33
2018-04-10T09:05:06.457Z,32.82
2018-04-10T09:06:06.640Z,33.15
2018-04-10T09:07:06.818Z,33.18
2018-04-10T09:08:07.024Z,33.35
2018-04-10T09:09:07.200Z,33.60
2018-04-10T09:10:07.382Z,33.81
2018-04-10T09:11:07.562Z,34.03
2018-04-10T09:12:07.739Z,34.17
2018-04-10T09:13:07.923Z,34.39
2018-04-10T09:14:08.108Z,33.95
2018-04-10T09:15:08.288Z,34.43
2018-04-10T09:16:08.468Z,34.31
2018-04-10T09:17:08.668Z,34.28
2018-04-10T09:18:08.845Z,33.84
2018-04-10T09:19:09.032Z,34.59
2018-04-10T09:20:09.220Z,34.87
2018-04-10T09:21:09.415Z,34.73
2018-04-10T09:22:09.594Z,35.28
2018-04-10T09:23:09.785Z,35.66
2018-04-10T09:24:09.988Z,35.48
2018-04-10T09:25:10.183Z,35.53
2018-04-10T09:26:10.356Z,35.74
2018-04-10T09:27:10.544Z,35.97
2018-04-10T09:28:10.727Z,35.81
2018-04-10T09:29:10.911Z,35.77
2018-04-10T09:30:11.101Z,36.05
2018-04-10T09:31:11.301Z,36.34
2018-04-10T09:32:11.472Z,36.60
2018-04-10T09:33:11.648Z,37.00
2018-04-10T09:34:11.840Z,36.78
2018-04-10T09:35:12.038Z,36.90
2018-04-10T09:36:12.236Z,37.22
2018-04-10T09:37:12.427Z,37.43
2018-04-10T09:38:12.610Z,37.28
2018-04-10T09:39:12.820Z,37.34
2018-04-10T09:40:13.009Z,37.62
2018-04-10T09:41:13.194Z,37.79
2018-04-10T09:42:13.383Z,37.67
2018-04-10T09:43:13.569Z,38.06
2018-04-10T09:44:13.774Z,38.15
2018-04-10T09:45:13.964Z,38.25
2018-04-10T09:46:14.152Z,38.44
2018-04-10T09:47:14.336Z,38.47
2018-04-10T09:48:14.538Z,38.07
2018-04-10T09:49:14.732Z,38.35
2018-04-10T09:50:14.953Z,38.30
2018-04-10T09:51:15.114Z,38.72
2018-04-10T09:52:15.307Z,38.88
2018-04-10T09:53:15.498Z,39.17
2018-04-10T09:54:15.691Z,39.36
2018-04-10T09:55:15.883Z,39.35
2018-04-10T09:56:16.082Z,39.36
2018-04-10T09:57:16.268Z,39.28
2018-04-10T09:58:16.471Z,38.96
2018-04-10T09:59:16.652Z,38.04
2018-04-10T10:00:16.839Z,38.09
2018-04-10T10:01:17.035Z,38.44
2018-04-10T10:02:17.225Z,38.71
2018-04-10T10:03:17.407Z,39.06
2018-04-10T10:04:17.613Z,39.14
2018-04-10T10:05:17.811Z,38.65
2018-04-10T10:06:17.994Z,38.81
2018-04-10T10:07:18.193Z,38.57
2018-04-10T10:08:18.380Z,38.75
2018-04-10T10:09:18.569Z,39.11
2018-04-10T10:10:18.759Z,39.28
2018-04-10T10:11:18.969Z,39.25
2018-04-10T10:12:19.142Z,39.38
2018-04-10T10:13:19.333Z,39.16
2018-04-10T10:14:19.529Z,39.45
2018-04-10T10:15:19.719Z,39.84
2018-04-10T10:16:19.918Z,39.66
2018-04-10T10:17:20.111Z,39.55
2018-04-10T10:18:20.302Z,39.07
2018-04-10T10:19:20.495Z,39.77
2018-04-10T10:20:20.688Z,39.57
2018-04-10T10:21:20.872Z,39.77
2018-04-10T10:22:21.063Z,39.70
2018-04-10T10:23:21.254Z,39.72
2018-04-10T10:24:21.444Z,39.57
2018-04-10T10:25:21.638Z,40.04
2018-04-10T10:26:21.832Z,40.27
2018-04-10T10:27:22.021Z,40.41
2018-04-10T10:28:22.213Z,39.91
2018-04-10T10:29:22.405Z,40.08
2018-04-10T10:30:22.598Z,39.73
2018-04-10T10:31:22.790Z,40.35
2018-04-10T10:32:22.981Z,40.42
2018-04-10T10:33:23.171Z,40.88
2018-04-10T10:34:23.367Z,40.94
2018-04-10T10:35:23.567Z,41.07
2018-04-10T10:36:23.759Z,40.41
2018-04-10T10:37:23.954Z,40.84
2018-04-10T10:38:24.144Z,40.61
2018-04-10T10:39:24.344Z,40.88
2018-04-10T10:40:24.540Z,41.37
2018-04-10T10:41:24.731Z,41.76
2018-04-10T10:42:24.921Z,41.20
2018-04-10T10:43:25.112Z,41.64
2018-04-10T10:44:25.306Z,41.64
2018-04-10T10:45:25.504Z,41.73
2018-04-10T10:46:25.701Z,41.28
2018-04-10T10:47:25.909Z,41.47
2018-04-10T10:48:26.107Z,41.57
2018-04-10T10:49:26.298Z,41.91
2018-04-10T10:50:26.490Z,42.04
2018-04-10T10:51:26.686Z,41.90
2018-04-10T10:52:26.878Z,41.70
2018-04-10T10:53:27.071Z,41.90
2018-04-10T10:54:27.260Z,42.11
2018-04-10T10:55:27.448Z,41.66
2018-04-10T10:56:27.646Z,41.70
2018-04-10T10:57:27.856Z,41.98
2018-04-10T10:58:28.039Z,41.93
2018-04-10T10:59:28.223Z,40.89
2018-04-10T11:00:28.429Z,40.74
2018-04-10T11:01:28.633Z,41.07
2018-04-10T11:02:28.824Z,41.51
2018-04-10T11:03:29.020Z,41.63
2018-04-10T11:04:29.215Z,41.94
2018-04-10T11:05:29.409Z,41.69
2018-04-10T11:06:29.619Z,42.02
2018-04-10T11:07:29.797Z,41.76
2018-04-10T11:08:30.004Z,41.58
2018-04-10T11:09:30.210Z,41.74
2018-04-10T11:10:30.384Z,42.24
2018-04-10T11:11:30.583Z,42.30
2018-04-10T11:12:30.790Z,42.47
2018-04-10T11:13:30.991Z,42.80
2018-04-10T11:14:31.190Z,42.46
2018-04-10T11:15:31.371Z,42.39
2018-04-10T11:16:31.591Z,42.73
2018-04-10T11:17:31.767Z,42.86
2018-04-10T11:18:32.005Z,43.07
2018-04-10T11:19:32.186Z,43.27
2018-04-10T11:20:32.392Z,43.08
2018-04-10T11:21:32.584Z,42.81
2018-04-10T11:22:32.768Z,42.86
2018-04-10T11:23:32.995Z,43.05
2018-04-10T11:24:33.188Z,42.83
2018-04-10T11:25:33.380Z,42.55
2018-04-10T11:26:33.592Z,42.76
2018-04-10T11:27:33.773Z,43.12
2018-04-10T11:28:33.975Z,43.02
2018-04-10T11:29:34.166Z,43.42
2018-04-10T11:30:34.365Z,43.22
2018-04-10T11:31:34.569Z,43.19
2018-04-10T11:32:34.774Z,43.19
2018-04-10T11:33:34.962Z,42.35
2018-04-10T11:34:35.160Z,41.71
2018-04-10T11:35:35.357Z,42.18
2018-04-10T11:36:35.552Z,42.35
2018-04-10T11:37:35.746Z,42.55
2018-04-10T11:38:35.951Z,42.76
2018-04-10T11:39:36.146Z,42.98
2018-04-10T11:40:36.338Z,42.99
2018-04-10T11:41:36.666Z,42.61
2018-04-10T11:42:36.795Z,42.62
2018-04-10T11:43:37.006Z,43.07
2018-04-10T11:44:37.194Z,43.25
2018-04-10T11:45:37.391Z,43.65
2018-04-10T11:46:37.590Z,43.11
2018-04-10T11:47:37.786Z,43.31
2018-04-10T11:49:30.126Z,43.35
2018-04-10T11:50:30.320Z,43.47
2018-04-10T11:51:30.852Z,43.93
2018-04-10T11:52:30.798Z,43.90
2018-04-10T11:53:31.659Z,44.24
2018-04-10T11:54:31.529Z,44.26
2018-04-10T11:55:36.320Z,44.09
2018-04-10T11:56:33.222Z,44.39
2018-04-10T11:58:54.414Z,44.68
2018-04-10T11:59:54.218Z,44.40
2018-04-10T12:00:53.780Z,44.32
2018-04-10T12:01:54.500Z,44.43
2018-04-10T12:02:54.417Z,44.67
2018-04-10T12:03:55.294Z,44.76
2018-04-10T12:04:54.779Z,44.07
2018-04-10T12:05:55.380Z,44.22
2018-04-10T12:06:54.991Z,44.41
2018-04-10T12:07:55.074Z,44.09
2018-04-10T12:08:55.677Z,44.14
2018-04-10T12:09:56.000Z,44.09
2018-04-10T12:10:55.997Z,44.13
2018-04-10T12:11:56.436Z,44.02
2018-04-10T12:12:56.440Z,43.53
2018-04-10T12:13:57.535Z,43.33
2018-04-10T12:14:57.261Z,43.47
2018-04-10T12:15:57.113Z,43.72
2018-04-10T12:16:57.560Z,43.94
2018-04-10T12:17:57.426Z,43.52
2018-04-10T12:18:57.490Z,44.05
2018-04-10T12:19:57.553Z,44.16
2018-04-10T12:20:57.823Z,44.00
2018-04-10T12:21:57.802Z,43.47
2018-04-10T12:22:58.014Z,43.40
2018-04-10T12:23:58.212Z,43.19
2018-04-10T12:24:58.416Z,43.02
2018-04-10T12:25:58.616Z,42.43
2018-04-10T12:26:58.818Z,41.83
2018-04-10T12:27:59.020Z,41.33
2018-04-10T12:28:59.216Z,40.96
2018-04-10T12:29:59.526Z,40.73
2018-04-10T12:30:59.650Z,40.45
2018-04-10T12:31:59.846Z,40.54
2018-04-10T12:33:00.038Z,40.70
2018-04-10T12:34:00.239Z,40.87
2018-04-10T12:35:00.438Z,40.69
2018-04-10T12:36:00.632Z,40.10
2018-04-10T12:37:00.842Z,39.72
2018-04-10T12:38:01.043Z,39.82
2018-04-10T12:39:01.241Z,39.91
2018-04-10T12:40:01.437Z,39.45
2018-04-10T12:41:01.640Z,39.21
2018-04-10T12:42:01.830Z,39.04
2018-04-10T12:43:02.071Z,38.79
2018-04-10T12:44:02.257Z,38.50
2018-04-10T12:45:02.417Z,38.41
2018-04-10T12:46:02.615Z,38.49
2018-04-10T12:47:02.813Z,38.47
2018-04-10T12:48:03.004Z,38.07
2018-04-10T12:49:03.198Z,38.06
2018-04-10T12:50:03.396Z,38.22
2018-04-10T12:51:03.583Z,38.42
2018-04-10T12:52:03.774Z,38.78
2018-04-10T12:53:03.972Z,38.84
2018-04-10T12:54:04.162Z,38.28
2018-04-10T12:55:04.355Z,38.19
2018-04-10T12:56:04.546Z,38.11
2018-04-10T12:57:04.740Z,38.06